sensor_id;sensor_type;location;lat;lon;timestamp;P1;durP1;ratioP1;P2;durP2;ratioP2
31872;SDS011;22407;42.820;23.374;2024-01-27T00:01:40;13.15;;;5.90;;
31872;SDS011;22407;42.820;23.374;2024-01-27T00:04:06;12.13;;;6.07;;
31872;SDS011;22407;42.820;23.374;2024-01-27T00:06:31;12.63;;;5.40;;
31872;SDS011;22407;42.820;23.374;2024-01-27T00:08:57;22.57;;;7.70;;
31872;SDS011;22407;42.820;23.374;2024-01-27T00:11:23;26.83;;;11.77;;
31872;SDS011;22407;42.820;23.374;2024-01-27T00:13:49;61.38;;;18.55;;
31872;SDS011;22407;42.820;23.374;2024-01-27T00:16:15;49.80;;;15.60;;
31872;SDS011;22407;42.820;23.374;2024-01-27T00:18:41;15.97;;;4.80;;
31872;SDS011;22407;42.820;23.374;2024-01-27T00:21:06;11.18;;;5.20;;
31872;SDS011;22407;42.820;23.374;2024-01-27T00:23:33;43.83;;;13.98;;
31872;SDS011;22407;42.820;23.374;2024-01-27T00:25:59;45.63;;;13.50;;
31872;SDS011;22407;42.820;23.374;2024-01-27T00:28:26;29.58;;;10.00;;
31872;SDS011;22407;42.820;23.374;2024-01-27T00:30:51;16.48;;;8.68;;
31872;SDS011;22407;42.820;23.374;2024-01-27T00:33:17;13.17;;;5.10;;
31872;SDS011;22407;42.820;23.374;2024-01-27T00:35:42;12.20;;;5.13;;
31872;SDS011;22407;42.820;23.374;2024-01-27T00:38:08;15.60;;;7.63;;
31872;SDS011;22407;42.820;23.374;2024-01-27T00:40:34;15.13;;;7.43;;
31872;SDS011;22407;42.820;23.374;2024-01-27T00:42:59;12.50;;;6.13;;
31872;SDS011;22407;42.820;23.374;2024-01-27T00:45:25;40.72;;;16.55;;
31872;SDS011;22407;42.820;23.374;2024-01-27T00:47:52;29.80;;;13.35;;
31872;SDS011;22407;42.820;23.374;2024-01-27T00:50:18;18.43;;;8.40;;
31872;SDS011;22407;42.820;23.374;2024-01-27T00:52:43;16.00;;;7.97;;
31872;SDS011;22407;42.820;23.374;2024-01-27T00:55:09;17.67;;;6.53;;
31872;SDS011;22407;42.820;23.374;2024-01-27T00:57:38;13.05;;;5.85;;
31872;SDS011;22407;42.820;23.374;2024-01-27T01:00:04;13.07;;;4.77;;
31872;SDS011;22407;42.820;23.374;2024-01-27T01:02:32;10.68;;;4.95;;
31872;SDS011;22407;42.820;23.374;2024-01-27T01:04:57;11.68;;;5.53;;
31872;SDS011;22407;42.820;23.374;2024-01-27T01:07:23;11.50;;;5.43;;
31872;SDS011;22407;42.820;23.374;2024-01-27T01:09:48;11.95;;;5.10;;
31872;SDS011;22407;42.820;23.374;2024-01-27T01:12:14;13.07;;;5.23;;
31872;SDS011;22407;42.820;23.374;2024-01-27T01:14:40;12.73;;;5.15;;
31872;SDS011;22407;42.820;23.374;2024-01-27T01:17:06;11.83;;;5.37;;
31872;SDS011;22407;42.820;23.374;2024-01-27T01:19:32;10.60;;;4.65;;
31872;SDS011;22407;42.820;23.374;2024-01-27T01:21:57;12.80;;;5.10;;
31872;SDS011;22407;42.820;23.374;2024-01-27T01:24:23;20.73;;;7.35;;
31872;SDS011;22407;42.820;23.374;2024-01-27T01:26:48;18.63;;;6.70;;
31872;SDS011;22407;42.820;23.374;2024-01-27T01:29:15;14.18;;;5.72;;
31872;SDS011;22407;42.820;23.374;2024-01-27T01:31:44;13.60;;;5.10;;
31872;SDS011;22407;42.820;23.374;2024-01-27T01:34:10;11.80;;;5.00;;
31872;SDS011;22407;42.820;23.374;2024-01-27T01:36:35;13.27;;;4.72;;
31872;SDS011;22407;42.820;23.374;2024-01-27T01:39:01;14.53;;;5.33;;
31872;SDS011;22407;42.820;23.374;2024-01-27T01:41:27;28.33;;;16.02;;
31872;SDS011;22407;42.820;23.374;2024-01-27T01:43:53;28.33;;;9.67;;
31872;SDS011;22407;42.820;23.374;2024-01-27T01:46:18;15.50;;;6.25;;
31872;SDS011;22407;42.820;23.374;2024-01-27T01:48:44;25.57;;;9.63;;
31872;SDS011;22407;42.820;23.374;2024-01-27T01:51:10;18.93;;;7.40;;
31872;SDS011;22407;42.820;23.374;2024-01-27T01:53:37;16.42;;;6.65;;
31872;SDS011;22407;42.820;23.374;2024-01-27T01:56:02;14.33;;;7.17;;
31872;SDS011;22407;42.820;23.374;2024-01-27T01:58:29;14.30;;;5.60;;
31872;SDS011;22407;42.820;23.374;2024-01-27T02:00:59;25.38;;;10.77;;
31872;SDS011;22407;42.820;23.374;2024-01-27T02:03:28;18.67;;;8.18;;
31872;SDS011;22407;42.820;23.374;2024-01-27T02:05:54;65.10;;;17.33;;
31872;SDS011;22407;42.820;23.374;2024-01-27T02:08:20;139.15;;;27.80;;
31872;SDS011;22407;42.820;23.374;2024-01-27T02:10:46;33.42;;;10.93;;
31872;SDS011;22407;42.820;23.374;2024-01-27T02:13:29;16.43;;;6.27;;
31872;SDS011;22407;42.820;23.374;2024-01-27T02:15:55;43.63;;;13.75;;
31872;SDS011;22407;42.820;23.374;2024-01-27T02:18:20;26.83;;;9.97;;
31872;SDS011;22407;42.820;23.374;2024-01-27T02:20:46;30.47;;;10.67;;
31872;SDS011;22407;42.820;23.374;2024-01-27T02:23:11;27.15;;;9.80;;
31872;SDS011;22407;42.820;23.374;2024-01-27T02:25:37;26.50;;;8.70;;
31872;SDS011;22407;42.820;23.374;2024-01-27T02:28:02;29.40;;;10.73;;
31872;SDS011;22407;42.820;23.374;2024-01-27T02:30:29;25.73;;;9.93;;
31872;SDS011;22407;42.820;23.374;2024-01-27T02:32:57;17.00;;;7.88;;
31872;SDS011;22407;42.820;23.374;2024-01-27T02:35:23;30.92;;;11.00;;
31872;SDS011;22407;42.820;23.374;2024-01-27T02:37:49;30.13;;;9.80;;
31872;SDS011;22407;42.820;23.374;2024-01-27T02:40:15;17.88;;;7.47;;
31872;SDS011;22407;42.820;23.374;2024-01-27T02:42:40;17.60;;;8.27;;
31872;SDS011;22407;42.820;23.374;2024-01-27T02:45:10;26.13;;;11.20;;
31872;SDS011;22407;42.820;23.374;2024-01-27T02:47:38;41.25;;;12.20;;
31872;SDS011;22407;42.820;23.374;2024-01-27T02:50:04;54.53;;;15.80;;
31872;SDS011;22407;42.820;23.374;2024-01-27T02:52:32;33.05;;;10.55;;
31872;SDS011;22407;42.820;23.374;2024-01-27T02:54:57;23.60;;;9.07;;
31872;SDS011;22407;42.820;23.374;2024-01-27T02:57:23;22.33;;;7.77;;
31872;SDS011;22407;42.820;23.374;2024-01-27T02:59:49;16.27;;;7.43;;
31872;SDS011;22407;42.820;23.374;2024-01-27T03:02:17;16.63;;;7.40;;
31872;SDS011;22407;42.820;23.374;2024-01-27T03:04:42;19.15;;;7.55;;
31872;SDS011;22407;42.820;23.374;2024-01-27T03:07:08;17.37;;;8.20;;
31872;SDS011;22407;42.820;23.374;2024-01-27T03:09:33;38.17;;;12.07;;
31872;SDS011;22407;42.820;23.374;2024-01-27T03:11:59;48.20;;;13.85;;
31872;SDS011;22407;42.820;23.374;2024-01-27T03:14:25;33.17;;;12.30;;
31872;SDS011;22407;42.820;23.374;2024-01-27T03:16:51;28.42;;;10.43;;
31872;SDS011;22407;42.820;23.374;2024-01-27T03:19:16;28.03;;;11.47;;
31872;SDS011;22407;42.820;23.374;2024-01-27T03:21:42;34.10;;;15.50;;
31872;SDS011;22407;42.820;23.374;2024-01-27T03:24:07;26.97;;;11.50;;
31872;SDS011;22407;42.820;23.374;2024-01-27T03:26:33;20.50;;;10.07;;
31872;SDS011;22407;42.820;23.374;2024-01-27T03:28:59;17.97;;;8.10;;
31872;SDS011;22407;42.820;23.374;2024-01-27T03:31:31;17.33;;;8.00;;
31872;SDS011;22407;42.820;23.374;2024-01-27T03:34:01;16.58;;;7.38;;
31872;SDS011;22407;42.820;23.374;2024-01-27T03:36:27;16.37;;;6.53;;
31872;SDS011;22407;42.820;23.374;2024-01-27T03:38:53;16.98;;;7.53;;
31872;SDS011;22407;42.820;23.374;2024-01-27T03:41:19;15.75;;;6.40;;
31872;SDS011;22407;42.820;23.374;2024-01-27T03:43:45;15.27;;;6.53;;
31872;SDS011;22407;42.820;23.374;2024-01-27T03:46:10;19.40;;;6.57;;
31872;SDS011;22407;42.820;23.374;2024-01-27T03:48:36;18.17;;;7.10;;
31872;SDS011;22407;42.820;23.374;2024-01-27T03:51:01;15.03;;;7.27;;
31872;SDS011;22407;42.820;23.374;2024-01-27T03:53:27;17.10;;;6.80;;
31872;SDS011;22407;42.820;23.374;2024-01-27T03:55:53;16.92;;;7.40;;
31872;SDS011;22407;42.820;23.374;2024-01-27T03:58:19;16.30;;;6.73;;
31872;SDS011;22407;42.820;23.374;2024-01-27T04:00:44;14.88;;;6.75;;
31872;SDS011;22407;42.820;23.374;2024-01-27T04:03:10;16.77;;;6.93;;
31872;SDS011;22407;42.820;23.374;2024-01-27T04:05:36;18.17;;;8.10;;
31872;SDS011;22407;42.820;23.374;2024-01-27T04:08:02;17.87;;;7.93;;
31872;SDS011;22407;42.820;23.374;2024-01-27T04:10:28;15.80;;;6.53;;
31872;SDS011;22407;42.820;23.374;2024-01-27T04:12:53;16.17;;;6.70;;
31872;SDS011;22407;42.820;23.374;2024-01-27T04:15:19;15.73;;;6.63;;
31872;SDS011;22407;42.820;23.374;2024-01-27T04:17:44;14.47;;;6.80;;
31872;SDS011;22407;42.820;23.374;2024-01-27T04:20:10;16.58;;;6.80;;
31872;SDS011;22407;42.820;23.374;2024-01-27T04:22:37;19.57;;;6.57;;
31872;SDS011;22407;42.820;23.374;2024-01-27T04:25:02;16.85;;;6.65;;
31872;SDS011;22407;42.820;23.374;2024-01-27T04:27:28;17.90;;;7.15;;
31872;SDS011;22407;42.820;23.374;2024-01-27T04:29:54;18.95;;;7.07;;
31872;SDS011;22407;42.820;23.374;2024-01-27T04:32:20;17.43;;;7.00;;
31872;SDS011;22407;42.820;23.374;2024-01-27T04:34:47;17.70;;;7.10;;
31872;SDS011;22407;42.820;23.374;2024-01-27T04:37:12;19.90;;;7.53;;
31872;SDS011;22407;42.820;23.374;2024-01-27T04:39:38;17.77;;;6.70;;
31872;SDS011;22407;42.820;23.374;2024-01-27T04:42:03;16.70;;;7.33;;
31872;SDS011;22407;42.820;23.374;2024-01-27T04:44:31;19.42;;;7.20;;
31872;SDS011;22407;42.820;23.374;2024-01-27T04:46:57;19.33;;;8.07;;
31872;SDS011;22407;42.820;23.374;2024-01-27T04:49:23;21.87;;;8.20;;
31872;SDS011;22407;42.820;23.374;2024-01-27T04:51:48;20.15;;;8.43;;
31872;SDS011;22407;42.820;23.374;2024-01-27T04:54:14;28.27;;;11.33;;
31872;SDS011;22407;42.820;23.374;2024-01-27T04:56:39;20.93;;;9.63;;
31872;SDS011;22407;42.820;23.374;2024-01-27T04:59:05;20.35;;;8.00;;
31872;SDS011;22407;42.820;23.374;2024-01-27T05:01:31;20.43;;;9.20;;
31872;SDS011;22407;42.820;23.374;2024-01-27T05:03:57;21.38;;;9.73;;
31872;SDS011;22407;42.820;23.374;2024-01-27T05:06:23;20.50;;;9.18;;
31872;SDS011;22407;42.820;23.374;2024-01-27T05:08:48;16.37;;;8.10;;
31872;SDS011;22407;42.820;23.374;2024-01-27T05:11:15;19.33;;;9.03;;
31872;SDS011;22407;42.820;23.374;2024-01-27T05:13:42;23.58;;;9.48;;
31872;SDS011;22407;42.820;23.374;2024-01-27T05:16:08;22.58;;;10.00;;
31872;SDS011;22407;42.820;23.374;2024-01-27T05:18:34;23.03;;;9.17;;
31872;SDS011;22407;42.820;23.374;2024-01-27T05:21:00;21.63;;;9.82;;
31872;SDS011;22407;42.820;23.374;2024-01-27T05:23:25;24.50;;;10.27;;
31872;SDS011;22407;42.820;23.374;2024-01-27T05:25:52;20.73;;;9.90;;
31872;SDS011;22407;42.820;23.374;2024-01-27T05:28:19;21.95;;;9.68;;
31872;SDS011;22407;42.820;23.374;2024-01-27T05:30:45;21.93;;;10.30;;
31872;SDS011;22407;42.820;23.374;2024-01-27T05:33:11;24.58;;;10.82;;
31872;SDS011;22407;42.820;23.374;2024-01-27T05:35:36;26.00;;;11.90;;
31872;SDS011;22407;42.820;23.374;2024-01-27T05:38:02;24.50;;;11.77;;
31872;SDS011;22407;42.820;23.374;2024-01-27T05:40:28;22.98;;;10.95;;
31872;SDS011;22407;42.820;23.374;2024-01-27T05:42:53;22.20;;;9.90;;
31872;SDS011;22407;42.820;23.374;2024-01-27T05:45:19;22.88;;;10.68;;
31872;SDS011;22407;42.820;23.374;2024-01-27T05:47:45;19.23;;;9.67;;
31872;SDS011;22407;42.820;23.374;2024-01-27T05:50:11;19.30;;;9.40;;
31872;SDS011;22407;42.820;23.374;2024-01-27T05:52:36;21.20;;;9.63;;
31872;SDS011;22407;42.820;23.374;2024-01-27T05:55:02;21.90;;;9.63;;
31872;SDS011;22407;42.820;23.374;2024-01-27T05:57:28;23.17;;;10.30;;
31872;SDS011;22407;42.820;23.374;2024-01-27T05:59:53;22.42;;;10.93;;
31872;SDS011;22407;42.820;23.374;2024-01-27T06:02:19;21.00;;;10.40;;
31872;SDS011;22407;42.820;23.374;2024-01-27T06:04:45;19.67;;;10.23;;
31872;SDS011;22407;42.820;23.374;2024-01-27T06:07:11;19.92;;;9.63;;
31872;SDS011;22407;42.820;23.374;2024-01-27T06:09:36;21.27;;;10.10;;
31872;SDS011;22407;42.820;23.374;2024-01-27T06:12:02;22.47;;;9.70;;
31872;SDS011;22407;42.820;23.374;2024-01-27T06:14:28;21.45;;;9.27;;
31872;SDS011;22407;42.820;23.374;2024-01-27T06:16:54;21.03;;;9.63;;
31872;SDS011;22407;42.820;23.374;2024-01-27T06:19:19;22.55;;;11.40;;
31872;SDS011;22407;42.820;23.374;2024-01-27T06:21:45;24.63;;;11.70;;
31872;SDS011;22407;42.820;23.374;2024-01-27T06:24:10;24.17;;;12.17;;
31872;SDS011;22407;42.820;23.374;2024-01-27T06:26:36;30.17;;;13.27;;
31872;SDS011;22407;42.820;23.374;2024-01-27T06:29:02;21.75;;;11.18;;
31872;SDS011;22407;42.820;23.374;2024-01-27T06:31:29;23.52;;;12.00;;
31872;SDS011;22407;42.820;23.374;2024-01-27T06:33:54;23.53;;;12.17;;
31872;SDS011;22407;42.820;23.374;2024-01-27T06:36:20;22.75;;;11.05;;
31872;SDS011;22407;42.820;23.374;2024-01-27T06:38:50;27.67;;;12.83;;
31872;SDS011;22407;42.820;23.374;2024-01-27T06:41:15;26.83;;;11.75;;
31872;SDS011;22407;42.820;23.374;2024-01-27T06:43:42;17.65;;;8.85;;
31872;SDS011;22407;42.820;23.374;2024-01-27T06:46:07;15.63;;;7.85;;
31872;SDS011;22407;42.820;23.374;2024-01-27T06:48:33;24.17;;;11.87;;
31872;SDS011;22407;42.820;23.374;2024-01-27T06:50:58;35.87;;;16.77;;
31872;SDS011;22407;42.820;23.374;2024-01-27T06:53:24;31.83;;;16.00;;
31872;SDS011;22407;42.820;23.374;2024-01-27T06:55:49;76.87;;;34.47;;
31872;SDS011;22407;42.820;23.374;2024-01-27T06:58:15;65.47;;;33.03;;
31872;SDS011;22407;42.820;23.374;2024-01-27T07:00:40;32.97;;;16.73;;
31872;SDS011;22407;42.820;23.374;2024-01-27T07:03:06;40.37;;;20.87;;
31872;SDS011;22407;42.820;23.374;2024-01-27T07:05:31;30.23;;;16.23;;
31872;SDS011;22407;42.820;23.374;2024-01-27T07:08:03;23.60;;;11.55;;
31872;SDS011;22407;42.820;23.374;2024-01-27T07:10:31;19.63;;;9.48;;
31872;SDS011;22407;42.820;23.374;2024-01-27T07:12:56;17.50;;;8.27;;
31872;SDS011;22407;42.820;23.374;2024-01-27T07:15:22;17.92;;;8.45;;
31872;SDS011;22407;42.820;23.374;2024-01-27T07:17:48;17.67;;;8.37;;
31872;SDS011;22407;42.820;23.374;2024-01-27T07:20:14;17.27;;;9.43;;
31872;SDS011;22407;42.820;23.374;2024-01-27T07:22:39;16.50;;;8.13;;
31872;SDS011;22407;42.820;23.374;2024-01-27T07:25:05;17.27;;;8.85;;
31872;SDS011;22407;42.820;23.374;2024-01-27T07:27:32;15.50;;;8.27;;
31872;SDS011;22407;42.820;23.374;2024-01-27T07:29:58;19.10;;;9.93;;
31872;SDS011;22407;42.820;23.374;2024-01-27T07:32:24;26.13;;;11.57;;
31872;SDS011;22407;42.820;23.374;2024-01-27T07:34:51;56.73;;;22.17;;
31872;SDS011;22407;42.820;23.374;2024-01-27T07:37:19;16.25;;;8.63;;
31872;SDS011;22407;42.820;23.374;2024-01-27T07:39:46;19.30;;;11.52;;
31872;SDS011;22407;42.820;23.374;2024-01-27T07:42:14;23.20;;;12.85;;
31872;SDS011;22407;42.820;23.374;2024-01-27T07:44:40;22.58;;;11.85;;
31872;SDS011;22407;42.820;23.374;2024-01-27T07:47:07;20.27;;;9.87;;
31872;SDS011;22407;42.820;23.374;2024-01-27T07:49:34;18.02;;;9.20;;
31872;SDS011;22407;42.820;23.374;2024-01-27T07:51:59;16.95;;;8.70;;
31872;SDS011;22407;42.820;23.374;2024-01-27T07:54:25;22.77;;;9.70;;
31872;SDS011;22407;42.820;23.374;2024-01-27T07:56:51;15.23;;;7.97;;
31872;SDS011;22407;42.820;23.374;2024-01-27T07:59:17;16.40;;;8.83;;
31872;SDS011;22407;42.820;23.374;2024-01-27T08:01:42;16.90;;;8.65;;
31872;SDS011;22407;42.820;23.374;2024-01-27T08:04:08;16.43;;;8.30;;
31872;SDS011;22407;42.820;23.374;2024-01-27T08:06:34;16.77;;;9.35;;
31872;SDS011;22407;42.820;23.374;2024-01-27T08:09:10;15.75;;;7.93;;
31872;SDS011;22407;42.820;23.374;2024-01-27T08:11:35;14.67;;;7.83;;
31872;SDS011;22407;42.820;23.374;2024-01-27T08:14:02;13.30;;;8.02;;
31872;SDS011;22407;42.820;23.374;2024-01-27T08:16:28;13.77;;;7.87;;
31872;SDS011;22407;42.820;23.374;2024-01-27T08:18:53;14.23;;;7.93;;
31872;SDS011;22407;42.820;23.374;2024-01-27T08:21:19;19.33;;;8.53;;
31872;SDS011;22407;42.820;23.374;2024-01-27T08:23:44;15.50;;;7.90;;
31872;SDS011;22407;42.820;23.374;2024-01-27T08:26:10;14.60;;;7.15;;
31872;SDS011;22407;42.820;23.374;2024-01-27T08:28:36;16.13;;;8.33;;
31872;SDS011;22407;42.820;23.374;2024-01-27T08:31:01;15.63;;;7.95;;
31872;SDS011;22407;42.820;23.374;2024-01-27T08:33:27;15.00;;;7.63;;
31872;SDS011;22407;42.820;23.374;2024-01-27T08:35:53;14.98;;;7.35;;
31872;SDS011;22407;42.820;23.374;2024-01-27T08:38:18;16.17;;;8.00;;
31872;SDS011;22407;42.820;23.374;2024-01-27T08:40:44;15.53;;;8.10;;
31872;SDS011;22407;42.820;23.374;2024-01-27T08:43:09;12.52;;;6.60;;
31872;SDS011;22407;42.820;23.374;2024-01-27T08:45:36;22.80;;;10.50;;
31872;SDS011;22407;42.820;23.374;2024-01-27T08:48:02;16.35;;;8.90;;
31872;SDS011;22407;42.820;23.374;2024-01-27T08:50:28;14.77;;;8.17;;
31872;SDS011;22407;42.820;23.374;2024-01-27T08:52:54;13.18;;;7.00;;
31872;SDS011;22407;42.820;23.374;2024-01-27T08:55:19;12.07;;;6.20;;
31872;SDS011;22407;42.820;23.374;2024-01-27T08:57:48;10.82;;;5.72;;
31872;SDS011;22407;42.820;23.374;2024-01-27T09:00:14;13.95;;;5.97;;
31872;SDS011;22407;42.820;23.374;2024-01-27T09:02:44;12.82;;;6.95;;
31872;SDS011;22407;42.820;23.374;2024-01-27T09:05:11;14.23;;;7.13;;
31872;SDS011;22407;42.820;23.374;2024-01-27T09:07:36;12.25;;;7.40;;
31872;SDS011;22407;42.820;23.374;2024-01-27T09:10:02;11.00;;;6.13;;
31872;SDS011;22407;42.820;23.374;2024-01-27T09:12:28;11.57;;;6.22;;
31872;SDS011;22407;42.820;23.374;2024-01-27T09:14:53;9.27;;;5.33;;
31872;SDS011;22407;42.820;23.374;2024-01-27T09:17:19;9.88;;;5.50;;
31872;SDS011;22407;42.820;23.374;2024-01-27T09:19:48;11.93;;;6.15;;
31872;SDS011;22407;42.820;23.374;2024-01-27T09:22:13;9.43;;;5.47;;
31872;SDS011;22407;42.820;23.374;2024-01-27T09:24:39;10.83;;;6.23;;
31872;SDS011;22407;42.820;23.374;2024-01-27T09:27:05;12.65;;;6.50;;
31872;SDS011;22407;42.820;23.374;2024-01-27T09:29:30;10.83;;;5.07;;
31872;SDS011;22407;42.820;23.374;2024-01-27T09:31:56;12.50;;;5.68;;
31872;SDS011;22407;42.820;23.374;2024-01-27T09:34:22;9.43;;;5.00;;
31872;SDS011;22407;42.820;23.374;2024-01-27T09:36:47;11.95;;;6.30;;
31872;SDS011;22407;42.820;23.374;2024-01-27T09:39:13;10.87;;;6.20;;
31872;SDS011;22407;42.820;23.374;2024-01-27T09:41:38;11.37;;;5.80;;
31872;SDS011;22407;42.820;23.374;2024-01-27T09:44:05;11.90;;;6.43;;
31872;SDS011;22407;42.820;23.374;2024-01-27T09:46:31;10.75;;;5.72;;
31872;SDS011;22407;42.820;23.374;2024-01-27T09:48:57;11.52;;;6.75;;
31872;SDS011;22407;42.820;23.374;2024-01-27T09:51:24;10.27;;;6.17;;
31872;SDS011;22407;42.820;23.374;2024-01-27T09:53:50;10.07;;;5.90;;
31872;SDS011;22407;42.820;23.374;2024-01-27T09:56:16;9.55;;;5.80;;
31872;SDS011;22407;42.820;23.374;2024-01-27T09:58:46;9.30;;;5.20;;
31872;SDS011;22407;42.820;23.374;2024-01-27T10:01:16;9.32;;;5.55;;
31872;SDS011;22407;42.820;23.374;2024-01-27T10:03:42;9.53;;;5.20;;
31872;SDS011;22407;42.820;23.374;2024-01-27T10:06:08;11.15;;;5.53;;
31872;SDS011;22407;42.820;23.374;2024-01-27T10:08:34;8.30;;;4.13;;
31872;SDS011;22407;42.820;23.374;2024-01-27T10:11:04;8.80;;;4.53;;
31872;SDS011;22407;42.820;23.374;2024-01-27T10:13:35;8.55;;;4.30;;
31872;SDS011;22407;42.820;23.374;2024-01-27T10:16:01;8.57;;;4.55;;
31872;SDS011;22407;42.820;23.374;2024-01-27T10:18:31;8.13;;;4.78;;
31872;SDS011;22407;42.820;23.374;2024-01-27T10:20:57;8.90;;;5.10;;
31872;SDS011;22407;42.820;23.374;2024-01-27T10:23:23;8.07;;;4.80;;
31872;SDS011;22407;42.820;23.374;2024-01-27T10:25:49;9.20;;;4.72;;
31872;SDS011;22407;42.820;23.374;2024-01-27T10:28:16;8.90;;;4.30;;
31872;SDS011;22407;42.820;23.374;2024-01-27T10:30:42;9.60;;;5.17;;
31872;SDS011;22407;42.820;23.374;2024-01-27T10:33:09;9.48;;;5.22;;
31872;SDS011;22407;42.820;23.374;2024-01-27T10:35:35;10.45;;;5.78;;
31872;SDS011;22407;42.820;23.374;2024-01-27T10:38:01;8.67;;;5.00;;
31872;SDS011;22407;42.820;23.374;2024-01-27T10:40:27;9.50;;;5.63;;
31872;SDS011;22407;42.820;23.374;2024-01-27T10:43:03;7.88;;;4.68;;
31872;SDS011;22407;42.820;23.374;2024-01-27T10:45:36;8.07;;;4.47;;
31872;SDS011;22407;42.820;23.374;2024-01-27T10:48:04;9.05;;;4.70;;
31872;SDS011;22407;42.820;23.374;2024-01-27T10:50:35;9.23;;;4.30;;
31872;SDS011;22407;42.820;23.374;2024-01-27T10:53:03;8.45;;;4.00;;
31872;SDS011;22407;42.820;23.374;2024-01-27T10:55:44;9.02;;;4.60;;
31872;SDS011;22407;42.820;23.374;2024-01-27T10:58:12;8.85;;;4.72;;
31872;SDS011;22407;42.820;23.374;2024-01-27T11:00:37;7.10;;;4.20;;
31872;SDS011;22407;42.820;23.374;2024-01-27T11:03:06;8.20;;;3.85;;
31872;SDS011;22407;42.820;23.374;2024-01-27T11:05:35;7.60;;;3.80;;
31872;SDS011;22407;42.820;23.374;2024-01-27T11:08:02;6.88;;;3.97;;
31872;SDS011;22407;42.820;23.374;2024-01-27T11:10:29;8.00;;;3.87;;
31872;SDS011;22407;42.820;23.374;2024-01-27T11:13:02;7.45;;;3.80;;
31872;SDS011;22407;42.820;23.374;2024-01-27T11:15:28;7.10;;;3.80;;
31872;SDS011;22407;42.820;23.374;2024-01-27T11:17:56;7.30;;;3.70;;
31872;SDS011;22407;42.820;23.374;2024-01-27T11:20:24;7.88;;;4.55;;
31872;SDS011;22407;42.820;23.374;2024-01-27T11:22:50;8.60;;;4.72;;
31872;SDS011;22407;42.820;23.374;2024-01-27T11:25:17;10.32;;;5.13;;
31872;SDS011;22407;42.820;23.374;2024-01-27T11:27:45;7.83;;;4.60;;
31872;SDS011;22407;42.820;23.374;2024-01-27T11:30:33;8.85;;;4.65;;
31872;SDS011;22407;42.820;23.374;2024-01-27T11:33:03;8.15;;;4.40;;
31872;SDS011;22407;42.820;23.374;2024-01-27T11:35:29;9.68;;;5.80;;
31872;SDS011;22407;42.820;23.374;2024-01-27T11:37:55;9.70;;;5.20;;
31872;SDS011;22407;42.820;23.374;2024-01-27T11:40:21;9.00;;;5.72;;
31872;SDS011;22407;42.820;23.374;2024-01-27T11:42:59;9.80;;;5.60;;
31872;SDS011;22407;42.820;23.374;2024-01-27T11:45:26;9.05;;;5.22;;
31872;SDS011;22407;42.820;23.374;2024-01-27T11:47:54;8.32;;;5.05;;
31872;SDS011;22407;42.820;23.374;2024-01-27T11:50:20;8.88;;;5.20;;
31872;SDS011;22407;42.820;23.374;2024-01-27T11:52:46;8.93;;;5.13;;
31872;SDS011;22407;42.820;23.374;2024-01-27T11:55:12;9.52;;;4.90;;
31872;SDS011;22407;42.820;23.374;2024-01-27T11:57:43;9.32;;;5.20;;
31872;SDS011;22407;42.820;23.374;2024-01-27T12:00:09;8.77;;;4.87;;
31872;SDS011;22407;42.820;23.374;2024-01-27T12:02:36;8.85;;;5.10;;
31872;SDS011;22407;42.820;23.374;2024-01-27T12:05:08;8.68;;;5.13;;
31872;SDS011;22407;42.820;23.374;2024-01-27T12:07:33;8.60;;;4.63;;
31872;SDS011;22407;42.820;23.374;2024-01-27T12:09:59;11.70;;;5.57;;
31872;SDS011;22407;42.820;23.374;2024-01-27T12:12:24;10.25;;;5.30;;
31872;SDS011;22407;42.820;23.374;2024-01-27T12:14:50;10.10;;;5.70;;
31872;SDS011;22407;42.820;23.374;2024-01-27T12:17:16;8.02;;;5.20;;
31872;SDS011;22407;42.820;23.374;2024-01-27T12:19:46;8.35;;;5.28;;
31872;SDS011;22407;42.820;23.374;2024-01-27T12:22:29;8.97;;;5.13;;
31872;SDS011;22407;42.820;23.374;2024-01-27T12:24:55;10.07;;;5.95;;
31872;SDS011;22407;42.820;23.374;2024-01-27T12:27:32;8.20;;;4.30;;
31872;SDS011;22407;42.820;23.374;2024-01-27T12:29:58;8.60;;;4.40;;
31872;SDS011;22407;42.820;23.374;2024-01-27T12:32:25;8.18;;;4.63;;
31872;SDS011;22407;42.820;23.374;2024-01-27T12:34:51;9.13;;;5.57;;
31872;SDS011;22407;42.820;23.374;2024-01-27T12:37:17;10.10;;;5.60;;
31872;SDS011;22407;42.820;23.374;2024-01-27T12:39:43;8.77;;;5.10;;
31872;SDS011;22407;42.820;23.374;2024-01-27T12:42:12;9.63;;;5.27;;
31872;SDS011;22407;42.820;23.374;2024-01-27T12:44:38;8.20;;;5.10;;
31872;SDS011;22407;42.820;23.374;2024-01-27T12:47:05;8.43;;;5.47;;
31872;SDS011;22407;42.820;23.374;2024-01-27T12:49:31;9.27;;;4.78;;
31872;SDS011;22407;42.820;23.374;2024-01-27T12:51:56;9.70;;;5.23;;
31872;SDS011;22407;42.820;23.374;2024-01-27T12:54:22;9.57;;;4.93;;
31872;SDS011;22407;42.820;23.374;2024-01-27T12:56:47;9.93;;;5.45;;
31872;SDS011;22407;42.820;23.374;2024-01-27T12:59:13;10.80;;;5.27;;
31872;SDS011;22407;42.820;23.374;2024-01-27T13:01:39;10.18;;;4.78;;
31872;SDS011;22407;42.820;23.374;2024-01-27T13:04:05;9.00;;;5.00;;
31872;SDS011;22407;42.820;23.374;2024-01-27T13:06:31;11.17;;;4.93;;
31872;SDS011;22407;42.820;23.374;2024-01-27T13:08:56;8.48;;;4.40;;
31872;SDS011;22407;42.820;23.374;2024-01-27T13:11:22;11.50;;;4.80;;
31872;SDS011;22407;42.820;23.374;2024-01-27T13:13:48;7.73;;;3.93;;
31872;SDS011;22407;42.820;23.374;2024-01-27T13:16:13;6.85;;;3.75;;
31872;SDS011;22407;42.820;23.374;2024-01-27T13:18:39;7.53;;;3.90;;
31872;SDS011;22407;42.820;23.374;2024-01-27T13:21:04;8.80;;;4.13;;
31872;SDS011;22407;42.820;23.374;2024-01-27T13:23:31;8.67;;;4.10;;
31872;SDS011;22407;42.820;23.374;2024-01-27T13:25:57;8.18;;;3.65;;
31872;SDS011;22407;42.820;23.374;2024-01-27T13:28:23;8.20;;;3.05;;
31872;SDS011;22407;42.820;23.374;2024-01-27T13:30:49;6.90;;;3.27;;
31872;SDS011;22407;42.820;23.374;2024-01-27T13:33:17;7.20;;;3.35;;
31872;SDS011;22407;42.820;23.374;2024-01-27T13:35:43;7.60;;;3.67;;
31872;SDS011;22407;42.820;23.374;2024-01-27T13:38:15;6.60;;;2.97;;
31872;SDS011;22407;42.820;23.374;2024-01-27T13:40:41;7.15;;;3.15;;
31872;SDS011;22407;42.820;23.374;2024-01-27T13:43:07;7.70;;;2.85;;
31872;SDS011;22407;42.820;23.374;2024-01-27T13:45:33;6.18;;;2.53;;
31872;SDS011;22407;42.820;23.374;2024-01-27T13:47:59;6.97;;;3.40;;
31872;SDS011;22407;42.820;23.374;2024-01-27T13:50:25;8.52;;;2.92;;
31872;SDS011;22407;42.820;23.374;2024-01-27T13:52:51;6.70;;;2.90;;
31872;SDS011;22407;42.820;23.374;2024-01-27T13:55:18;6.63;;;3.10;;
31872;SDS011;22407;42.820;23.374;2024-01-27T13:57:44;5.43;;;3.03;;
31872;SDS011;22407;42.820;23.374;2024-01-27T14:00:10;6.38;;;2.90;;
31872;SDS011;22407;42.820;23.374;2024-01-27T14:02:36;7.30;;;2.72;;
31872;SDS011;22407;42.820;23.374;2024-01-27T14:05:02;6.10;;;3.13;;
31872;SDS011;22407;42.820;23.374;2024-01-27T14:07:29;6.97;;;2.88;;
31872;SDS011;22407;42.820;23.374;2024-01-27T14:09:55;6.65;;;3.00;;
31872;SDS011;22407;42.820;23.374;2024-01-27T14:12:21;6.35;;;3.17;;
31872;SDS011;22407;42.820;23.374;2024-01-27T14:14:48;7.40;;;3.20;;
31872;SDS011;22407;42.820;23.374;2024-01-27T14:17:15;8.45;;;4.10;;
31872;SDS011;22407;42.820;23.374;2024-01-27T14:19:40;7.63;;;3.77;;